CheckWX is a tool to help pilots better visualize weather data.  It is not intended as a substitute for an official pre-flight weather briefing.

14:18:52 UTC

KTOL METAR
Toledo Express Airport
Toledo, Ohio, USA
Current

27 mins ago

KTOL 221352Z 19006KT 10SM CLR 15/08 A3022 RMK AO2 SLP234 T01500078
Observed
Apr-22 @ 13:52 UTC
Wind
  • 190° at 6 KTS
Visibility
10 SM
Flight Rules
VFR
Cloud Levels
  • Clear skies
Temperature
15°C / 59°F
Dewpoint
C / 46°F
Humidity
63%
Altimeter
30.22" Hg
Pressure
1023.42 hPa
Previous

1 hour ago

KTOL 221252Z 16003KT 10SM CLR 12/06 A3022 RMK AO2 SLP233 T01170061
Observed
Apr-22 @ 12:52 UTC
Wind
  • 160° at 3 KTS
Visibility
10 SM
Flight Rules
VFR
Cloud Levels
  • Clear skies
Temperature
12°C / 54°F
Dewpoint
C / 43°F
Humidity
67%
Altimeter
30.22" Hg
Pressure
1023.42 hPa
Previous

2 hours ago

KTOL 221152Z 00000KT 10SM CLR 10/06 A3021 RMK AO2 SLP230 T01000061 10111 20067 53010
Observed
Apr-22 @ 11:52 UTC
Visibility
10 SM
Flight Rules
VFR
Cloud Levels
  • Clear skies
Temperature
10°C / 50°F
Dewpoint
C / 43°F
Humidity
76%
Altimeter
30.21" Hg
Pressure
1023.02 hPa